createdAt,value
2018-04-16T00:00:44.802Z,92.4
2018-04-16T00:01:46.193Z,92.2
2018-04-16T00:02:47.586Z,92.4
2018-04-16T00:03:48.972Z,92.1
2018-04-16T00:04:50.361Z,92.0
2018-04-16T00:05:51.750Z,92.4
2018-04-16T00:06:53.137Z,92.0
2018-04-16T00:07:54.528Z,91.7
2018-04-16T00:08:55.918Z,91.5
2018-04-16T00:09:57.311Z,91.4
2018-04-16T00:10:58.696Z,91.6
2018-04-16T00:12:00.087Z,90.9
2018-04-16T00:13:01.476Z,91.0
2018-04-16T00:14:02.861Z,90.5
2018-04-16T00:15:04.251Z,90.3
2018-04-16T00:16:05.642Z,90.2
2018-04-16T00:17:07.031Z,90.6
2018-04-16T00:18:08.423Z,89.8
2018-04-16T00:19:09.816Z,90.0
2018-04-16T00:20:11.200Z,89.8
2018-04-16T00:21:12.603Z,89.7
2018-04-16T00:22:13.992Z,89.6
2018-04-16T00:23:15.381Z,89.5
2018-04-16T00:24:16.774Z,89.3
2018-04-16T00:25:18.162Z,88.8
2018-04-16T00:26:19.549Z,89.0
2018-04-16T00:27:20.938Z,89.3
2018-04-16T00:28:22.325Z,89.2
2018-04-16T00:29:23.718Z,89.2
2018-04-16T00:30:25.104Z,89.1
2018-04-16T00:31:26.502Z,88.8
2018-04-16T00:32:27.885Z,89.2
2018-04-16T00:33:29.272Z,89.0
2018-04-16T00:34:30.656Z,89.2
2018-04-16T00:35:32.048Z,89.0
2018-04-16T00:36:33.432Z,89.1
2018-04-16T00:37:34.821Z,89.2
2018-04-16T00:38:36.216Z,89.2
2018-04-16T00:39:37.601Z,89.3
2018-04-16T00:40:38.992Z,89.1
2018-04-16T00:41:40.383Z,89.5
2018-04-16T00:42:41.771Z,89.7
2018-04-16T00:43:43.160Z,89.4
2018-04-16T00:44:44.579Z,89.2
2018-04-16T00:45:45.972Z,89.2
2018-04-16T00:46:47.360Z,89.1
2018-04-16T00:47:48.749Z,89.2
2018-04-16T00:48:50.138Z,89.2
2018-04-16T00:49:51.536Z,89.1
2018-04-16T00:50:52.952Z,89.2
2018-04-16T00:51:54.345Z,88.9
2018-04-16T00:52:55.735Z,88.8
2018-04-16T00:53:57.127Z,89.0
2018-04-16T00:54:58.520Z,89.2
2018-04-16T00:55:59.908Z,89.2
2018-04-16T00:57:01.312Z,89.2
2018-04-16T00:58:02.691Z,89.1
2018-04-16T00:59:04.097Z,89.0
2018-04-16T01:00:05.497Z,89.1
2018-04-16T01:01:06.888Z,89.0
2018-04-16T01:02:08.276Z,89.2
2018-04-16T01:03:09.670Z,89.3
2018-04-16T01:04:11.060Z,89.3
2018-04-16T01:05:12.450Z,89.6
2018-04-16T01:06:13.843Z,89.6
2018-04-16T01:07:15.233Z,89.8
2018-04-16T01:08:16.623Z,89.3
2018-04-16T01:09:18.013Z,90.0
2018-04-16T01:10:19.398Z,90.0
2018-04-16T01:11:20.785Z,89.8
2018-04-16T01:12:22.173Z,90.1
2018-04-16T01:13:23.570Z,90.4
2018-04-16T01:14:24.959Z,90.4
2018-04-16T01:15:26.346Z,90.4
2018-04-16T01:16:27.734Z,90.4
2018-04-16T01:17:29.125Z,90.2
2018-04-16T01:18:30.511Z,90.6
2018-04-16T01:19:31.906Z,90.1
2018-04-16T01:20:33.297Z,91.1
2018-04-16T01:21:34.687Z,90.8
2018-04-16T01:22:36.106Z,90.8
2018-04-16T01:23:37.495Z,90.6
2018-04-16T01:24:38.884Z,91.0
2018-04-16T01:25:40.272Z,90.7
2018-04-16T01:26:41.663Z,91.3
2018-04-16T01:27:43.055Z,91.8
2018-04-16T01:28:44.448Z,91.4
2018-04-16T01:29:45.838Z,91.2
2018-04-16T01:30:47.222Z,91.2
2018-04-16T01:31:48.612Z,92.1
2018-04-16T01:32:50.002Z,91.6
2018-04-16T01:33:51.514Z,91.5
2018-04-16T01:34:52.920Z,92.0
2018-04-16T01:35:54.312Z,92.0
2018-04-16T01:36:55.698Z,91.9
2018-04-16T01:37:57.090Z,92.1
2018-04-16T01:38:58.475Z,92.3
2018-04-16T01:39:59.863Z,92.8
2018-04-16T01:41:01.253Z,93.2
2018-04-16T01:42:02.643Z,93.4
2018-04-16T01:43:04.036Z,93.5
2018-04-16T01:44:05.426Z,93.3
2018-04-16T01:45:06.813Z,93.5
2018-04-16T01:46:08.204Z,93.2
2018-04-16T01:47:09.592Z,93.2
2018-04-16T01:48:10.985Z,93.8
2018-04-16T01:49:12.375Z,93.4
2018-04-16T01:50:13.764Z,93.7
2018-04-16T01:51:15.158Z,94.0
2018-04-16T01:52:16.545Z,93.3
2018-04-16T01:53:17.933Z,93.3
2018-04-16T01:54:19.320Z,93.0
2018-04-16T01:55:20.712Z,92.6
2018-04-16T01:56:22.101Z,92.5
2018-04-16T01:57:23.489Z,92.5
2018-04-16T01:58:24.888Z,92.4
2018-04-16T01:59:26.275Z,92.0
2018-04-16T02:00:27.664Z,92.1
2018-04-16T02:01:29.052Z,92.1
2018-04-16T02:02:30.441Z,92.2
2018-04-16T02:03:31.831Z,92.0
2018-04-16T02:04:33.221Z,91.9
2018-04-16T02:05:34.614Z,92.1
2018-04-16T02:06:36.017Z,91.6
2018-04-16T02:07:37.391Z,91.3
2018-04-16T02:08:38.778Z,91.0
2018-04-16T02:09:40.167Z,91.4
2018-04-16T02:10:41.554Z,91.2
2018-04-16T02:11:42.942Z,91.4
2018-04-16T02:12:44.331Z,91.1
2018-04-16T02:13:45.718Z,91.6
2018-04-16T02:14:47.106Z,91.5
2018-04-16T02:15:48.495Z,91.4
2018-04-16T02:16:49.884Z,91.3
2018-04-16T02:17:51.273Z,91.5
2018-04-16T02:18:52.661Z,92.3
2018-04-16T02:19:54.050Z,91.9
2018-04-16T02:20:55.436Z,92.2
2018-04-16T02:21:56.826Z,92.2
2018-04-16T02:22:58.252Z,92.0
2018-04-16T02:23:59.655Z,92.0
2018-04-16T02:25:01.069Z,92.4
2018-04-16T02:26:02.462Z,92.2
2018-04-16T02:27:03.850Z,92.1
2018-04-16T02:28:05.236Z,93.0
2018-04-16T02:29:06.623Z,92.5
2018-04-16T02:30:08.014Z,93.4
2018-04-16T02:31:09.401Z,93.4
2018-04-16T02:32:10.789Z,94.0
2018-04-16T02:33:12.195Z,94.0
2018-04-16T02:34:13.561Z,94.6
2018-04-16T02:35:14.948Z,94.7
2018-04-16T02:36:16.340Z,95.2
2018-04-16T02:37:17.727Z,95.6
2018-04-16T02:38:19.115Z,95.8
2018-04-16T02:39:20.508Z,95.8
2018-04-16T02:40:21.900Z,95.7
2018-04-16T02:41:23.282Z,95.5
2018-04-16T02:42:24.668Z,96.2
2018-04-16T02:43:26.055Z,96.8
2018-04-16T02:44:27.449Z,97.9
2018-04-16T02:45:28.836Z,97.0
2018-04-16T02:46:30.223Z,97.9
2018-04-16T02:47:31.614Z,97.6
2018-04-16T02:48:33.002Z,97.4
2018-04-16T02:49:34.386Z,97.7
2018-04-16T02:50:35.785Z,97.2
2018-04-16T02:51:37.175Z,96.9
2018-04-16T02:52:38.560Z,96.6
2018-04-16T02:53:39.948Z,97.2
2018-04-16T02:54:41.338Z,97.1
2018-04-16T02:55:42.726Z,96.6
2018-04-16T02:56:44.110Z,96.6
2018-04-16T02:57:45.499Z,96.7
2018-04-16T02:58:46.889Z,96.7
2018-04-16T02:59:48.276Z,96.7
2018-04-16T03:00:49.668Z,96.3
2018-04-16T03:01:51.059Z,96.5
2018-04-16T03:02:52.443Z,96.7
2018-04-16T03:03:53.839Z,96.6
2018-04-16T03:04:55.224Z,96.7
2018-04-16T03:05:56.613Z,96.6
2018-04-16T03:06:58.000Z,96.6
2018-04-16T03:08:01.243Z,96.4
2018-04-16T03:09:02.622Z,97.6
2018-04-16T03:10:04.053Z,96.8
2018-04-16T03:11:05.509Z,96.7
2018-04-16T03:12:06.903Z,97.6
2018-04-16T03:13:08.292Z,97.5
2018-04-16T03:14:09.681Z,97.6
2018-04-16T03:15:11.073Z,97.5
2018-04-16T03:16:12.464Z,97.3
2018-04-16T03:17:13.850Z,98.0
2018-04-16T03:18:15.252Z,97.7
2018-04-16T03:19:16.642Z,98.0
2018-04-16T03:20:18.029Z,98.1
2018-04-16T03:21:19.417Z,97.9
2018-04-16T03:22:20.807Z,97.7
2018-04-16T03:23:22.200Z,97.6
2018-04-16T03:24:23.588Z,98.2
2018-04-16T03:25:24.974Z,98.5
2018-04-16T03:26:26.362Z,98.7
2018-04-16T03:27:27.748Z,98.6
2018-04-16T03:28:29.143Z,98.5
2018-04-16T03:29:30.532Z,98.8
2018-04-16T03:30:31.919Z,98.7
2018-04-16T03:31:33.308Z,98.0
2018-04-16T03:32:34.694Z,97.8
2018-04-16T03:33:36.080Z,97.7
2018-04-16T03:34:37.469Z,97.5
2018-04-16T03:35:38.858Z,97.0
2018-04-16T03:36:40.262Z,96.8
2018-04-16T03:37:41.641Z,96.9
2018-04-16T03:38:43.027Z,97.6
2018-04-16T03:39:44.421Z,97.4
2018-04-16T03:40:45.832Z,97.3
2018-04-16T03:41:47.218Z,97.3
2018-04-16T03:42:48.610Z,97.7
2018-04-16T03:43:50.005Z,98.0
2018-04-16T03:44:51.391Z,97.8
2018-04-16T03:45:52.780Z,98.1
2018-04-16T03:46:54.173Z,98.0
2018-04-16T03:47:55.560Z,98.7
2018-04-16T03:48:56.956Z,98.6
2018-04-16T03:49:58.348Z,98.8
2018-04-16T03:50:59.731Z,98.8
2018-04-16T03:52:01.125Z,98.9
2018-04-16T03:53:02.513Z,99.7
2018-04-16T03:54:03.901Z,99.1
2018-04-16T03:55:05.288Z,99.6
2018-04-16T03:56:06.685Z,98.8
2018-04-16T03:57:08.077Z,98.9
2018-04-16T03:58:09.470Z,98.9
2018-04-16T03:59:10.872Z,99.0
2018-04-16T04:00:12.329Z,99.0
2018-04-16T04:01:13.778Z,99.0
2018-04-16T04:02:15.134Z,99.0
2018-04-16T04:03:16.521Z,99.4
2018-04-16T04:04:17.908Z,99.9
2018-04-16T04:05:19.303Z,99.5
2018-04-16T04:06:20.687Z,99.3
2018-04-16T04:07:22.078Z,100.0
2018-04-16T04:08:23.462Z,99.6
2018-04-16T04:09:24.851Z,99.7
2018-04-16T04:10:26.241Z,99.9
2018-04-16T04:11:27.628Z,99.3
2018-04-16T04:12:29.017Z,99.8
2018-04-16T04:13:30.408Z,99.4
2018-04-16T04:14:31.796Z,100.0
2018-04-16T04:15:33.191Z,99.7
2018-04-16T04:16:34.579Z,99.5
2018-04-16T04:17:35.968Z,99.0
2018-04-16T04:18:37.360Z,99.1
2018-04-16T04:19:38.753Z,98.6
2018-04-16T04:20:40.141Z,98.8
2018-04-16T04:21:41.528Z,98.7
2018-04-16T04:22:42.916Z,98.8
2018-04-16T04:23:44.302Z,98.8
2018-04-16T04:24:45.693Z,98.9
2018-04-16T04:25:47.087Z,99.1
2018-04-16T04:26:48.476Z,98.9
2018-04-16T04:27:49.871Z,98.7
2018-04-16T04:28:51.256Z,98.3
2018-04-16T04:29:52.725Z,98.3
2018-04-16T04:30:54.117Z,98.9
2018-04-16T04:31:55.505Z,98.8
2018-04-16T04:32:56.922Z,98.7
2018-04-16T04:33:58.314Z,98.7
2018-04-16T04:34:59.713Z,98.9
2018-04-16T04:36:01.176Z,98.7
2018-04-16T04:37:02.565Z,98.7
2018-04-16T04:38:03.956Z,97.8
2018-04-16T04:39:05.358Z,98.2
2018-04-16T04:40:06.748Z,97.5
2018-04-16T04:41:08.137Z,98.0
2018-04-16T04:42:09.530Z,97.0
2018-04-16T04:43:10.920Z,96.7
2018-04-16T04:44:12.310Z,97.2
2018-04-16T04:45:13.705Z,96.8
2018-04-16T04:46:15.087Z,96.4
2018-04-16T04:47:16.485Z,96.8
2018-04-16T04:48:17.886Z,96.9
2018-04-16T04:49:19.383Z,96.9
2018-04-16T04:50:20.799Z,96.7
2018-04-16T04:51:22.193Z,96.7
2018-04-16T04:52:23.585Z,96.3
2018-04-16T04:53:24.975Z,96.9
2018-04-16T04:54:26.367Z,97.3
2018-04-16T04:55:27.761Z,97.3
2018-04-16T04:56:29.151Z,96.6
2018-04-16T04:57:30.544Z,97.1
2018-04-16T04:58:31.937Z,96.7
2018-04-16T04:59:33.328Z,95.9
2018-04-16T05:00:34.716Z,95.8
2018-04-16T05:01:36.117Z,97.0
2018-04-16T05:02:37.512Z,96.7
2018-04-16T05:03:38.909Z,97.0
2018-04-16T05:04:40.299Z,97.0
2018-04-16T05:05:41.689Z,96.6
2018-04-16T05:06:43.092Z,97.7
2018-04-16T05:07:44.480Z,97.5
2018-04-16T05:08:45.896Z,97.8
2018-04-16T05:09:47.287Z,97.9
2018-04-16T05:10:48.681Z,98.3
2018-04-16T05:11:50.071Z,98.8
2018-04-16T05:12:51.466Z,98.6
2018-04-16T05:13:52.906Z,98.4
2018-04-16T05:14:54.251Z,98.3
2018-04-16T05:15:55.648Z,98.7
2018-04-16T05:16:57.037Z,98.4
2018-04-16T05:17:58.432Z,98.5
2018-04-16T05:18:59.824Z,98.7
2018-04-16T05:20:01.219Z,98.3
2018-04-16T05:21:02.609Z,97.6
2018-04-16T05:22:04.000Z,97.5
2018-04-16T05:23:05.392Z,96.6
2018-04-16T05:24:06.786Z,97.4
2018-04-16T05:25:08.177Z,97.0
2018-04-16T05:26:09.568Z,97.0
2018-04-16T05:27:10.963Z,96.7
2018-04-16T05:28:14.071Z,96.8
2018-04-16T05:29:15.472Z,95.9
2018-04-16T05:30:16.863Z,95.5
2018-04-16T05:31:18.259Z,95.9
2018-04-16T05:32:19.655Z,95.2
2018-04-16T05:33:21.049Z,95.6
2018-04-16T05:34:22.443Z,94.8
2018-04-16T05:35:23.923Z,94.8
2018-04-16T05:36:25.362Z,93.9
2018-04-16T05:37:26.782Z,93.9
2018-04-16T05:38:28.176Z,93.2
2018-04-16T05:39:29.571Z,92.8
2018-04-16T05:40:30.961Z,93.3
2018-04-16T05:41:32.353Z,92.8
2018-04-16T05:42:33.802Z,93.2
2018-04-16T05:43:35.137Z,92.8
2018-04-16T05:44:36.533Z,93.2
2018-04-16T05:45:37.924Z,93.4
2018-04-16T05:46:39.318Z,92.9
2018-04-16T05:47:40.709Z,93.1
2018-04-16T05:48:42.100Z,93.6
2018-04-16T05:49:43.494Z,93.3
2018-04-16T05:50:44.885Z,93.4
2018-04-16T05:51:46.280Z,93.7
2018-04-16T05:52:47.672Z,93.8
2018-04-16T05:53:49.076Z,94.2
2018-04-16T05:54:50.461Z,93.8
2018-04-16T05:55:51.856Z,93.6
2018-04-16T05:56:53.250Z,93.9
2018-04-16T05:57:54.642Z,93.4
2018-04-16T05:58:56.046Z,93.6
2018-04-16T05:59:57.441Z,93.5
2018-04-16T06:00:58.837Z,93.6
2018-04-16T06:02:00.232Z,93.3
2018-04-16T06:03:01.624Z,92.4
2018-04-16T06:04:03.021Z,93.0
2018-04-16T06:05:04.424Z,92.9
2018-04-16T06:06:05.811Z,92.8
2018-04-16T06:07:07.205Z,92.6
2018-04-16T06:08:08.606Z,92.4
2018-04-16T06:09:09.993Z,92.5
2018-04-16T06:10:11.394Z,92.6
2018-04-16T06:11:12.797Z,92.3
2018-04-16T06:12:14.193Z,93.1
2018-04-16T06:13:15.588Z,91.6
2018-04-16T06:14:16.985Z,92.2
2018-04-16T06:15:18.394Z,91.6
2018-04-16T06:16:19.791Z,92.4
2018-04-16T06:17:21.185Z,91.5
2018-04-16T06:18:22.580Z,92.1
2018-04-16T06:19:23.976Z,91.7
2018-04-16T06:20:25.372Z,91.0
2018-04-16T06:21:26.766Z,91.0
2018-04-16T06:22:28.164Z,91.4
2018-04-16T06:23:29.557Z,90.3
2018-04-16T06:24:30.967Z,90.4
2018-04-16T06:25:32.418Z,90.7
2018-04-16T06:26:33.825Z,91.0
2018-04-16T06:27:35.217Z,91.2
2018-04-16T06:28:36.611Z,90.6
2018-04-16T06:29:38.008Z,90.7
2018-04-16T06:30:39.401Z,90.9
2018-04-16T06:31:40.792Z,90.7
2018-04-16T06:32:42.189Z,90.6
2018-04-16T06:33:43.587Z,90.5
2018-04-16T06:34:44.980Z,90.6
2018-04-16T06:35:46.375Z,90.7
2018-04-16T06:36:47.779Z,90.9
2018-04-16T06:37:49.164Z,91.3
2018-04-16T06:38:50.565Z,91.6
2018-04-16T06:39:51.962Z,91.4
2018-04-16T06:40:53.356Z,92.3
2018-04-16T06:41:54.750Z,91.4
2018-04-16T06:42:56.146Z,92.1
2018-04-16T06:43:57.543Z,92.2
2018-04-16T06:44:58.937Z,92.4
2018-04-16T06:46:00.332Z,92.4
2018-04-16T06:47:01.745Z,92.5
2018-04-16T06:48:03.125Z,92.3
2018-04-16T06:49:04.517Z,92.6
2018-04-16T06:50:05.912Z,91.9
2018-04-16T06:51:07.310Z,92.1
2018-04-16T06:52:08.706Z,91.5
2018-04-16T06:53:10.153Z,91.9
2018-04-16T06:54:11.498Z,92.2
2018-04-16T06:55:12.892Z,91.9
2018-04-16T06:56:14.291Z,91.9
2018-04-16T06:57:15.686Z,91.6
2018-04-16T06:58:17.094Z,91.5
2018-04-16T06:59:18.500Z,91.6
2018-04-16T07:00:19.890Z,91.2
2018-04-16T07:01:21.305Z,90.6
2018-04-16T07:02:22.706Z,91.5
2018-04-16T07:03:24.087Z,90.9
2018-04-16T07:04:25.488Z,90.9
2018-04-16T07:05:26.887Z,91.2
2018-04-16T07:06:28.280Z,91.3
2018-04-16T07:07:29.673Z,90.4
2018-04-16T07:08:31.131Z,90.7
2018-04-16T07:09:32.519Z,91.1
2018-04-16T07:10:33.919Z,90.5
2018-04-16T07:11:35.330Z,90.2
2018-04-16T07:12:36.728Z,90.3
2018-04-16T07:13:38.140Z,90.3
2018-04-16T07:14:39.554Z,90.3
2018-04-16T07:15:40.958Z,90.2
2018-04-16T07:16:42.352Z,90.0
2018-04-16T07:17:43.748Z,90.7
2018-04-16T07:18:45.143Z,90.1
2018-04-16T07:19:46.547Z,89.7
2018-04-16T07:20:47.942Z,88.9
2018-04-16T07:21:49.343Z,87.7
2018-04-16T07:22:50.733Z,87.7
2018-04-16T07:23:52.134Z,87.5
2018-04-16T07:24:53.534Z,87.8
2018-04-16T07:25:54.933Z,87.7
2018-04-16T07:26:56.359Z,87.4
2018-04-16T07:27:57.751Z,88.2
2018-04-16T07:28:59.146Z,88.6
2018-04-16T07:30:00.544Z,88.0
2018-04-16T07:31:01.942Z,87.4
2018-04-16T07:32:03.338Z,87.3
2018-04-16T07:33:04.733Z,86.6
2018-04-16T07:34:06.133Z,85.7
2018-04-16T07:35:07.524Z,87.0
2018-04-16T07:36:08.920Z,87.2
2018-04-16T07:37:10.317Z,87.8
2018-04-16T07:38:11.716Z,86.8
2018-04-16T07:39:13.124Z,86.2
2018-04-16T07:40:14.524Z,85.7
2018-04-16T07:41:15.920Z,86.4
2018-04-16T07:42:17.332Z,87.1
2018-04-16T07:43:18.731Z,86.8
2018-04-16T07:44:20.128Z,85.9
2018-04-16T07:45:21.528Z,86.6
2018-04-16T07:46:22.928Z,87.2
2018-04-16T07:47:24.333Z,87.0
2018-04-16T07:48:25.729Z,86.8
2018-04-16T07:49:27.123Z,87.7
2018-04-16T07:50:28.522Z,87.8
2018-04-16T07:51:29.921Z,88.5
2018-04-16T07:52:31.317Z,87.4
2018-04-16T07:53:32.714Z,87.3
2018-04-16T07:54:34.110Z,86.9
2018-04-16T07:55:35.505Z,86.6
2018-04-16T07:56:36.899Z,86.5
2018-04-16T07:57:38.296Z,86.7
2018-04-16T07:58:39.692Z,85.8
2018-04-16T07:59:41.088Z,85.6
2018-04-16T08:00:42.482Z,86.4
2018-04-16T08:01:43.882Z,86.9
2018-04-16T08:02:45.377Z,86.5
2018-04-16T08:03:46.769Z,86.2
2018-04-16T08:04:48.164Z,86.9
2018-04-16T08:05:49.560Z,87.1
2018-04-16T08:06:50.959Z,85.9
2018-04-16T08:07:52.361Z,86.0
2018-04-16T08:08:53.751Z,85.4
2018-04-16T08:09:55.152Z,86.6
2018-04-16T08:10:56.558Z,87.0
2018-04-16T08:11:57.954Z,85.9
2018-04-16T08:12:59.355Z,86.2
2018-04-16T08:14:00.780Z,85.9
2018-04-16T08:15:02.175Z,85.2
2018-04-16T08:16:03.599Z,85.6
2018-04-16T08:17:04.980Z,85.0
2018-04-16T08:18:06.375Z,85.2
2018-04-16T08:19:07.771Z,84.6
2018-04-16T08:20:09.166Z,83.9
2018-04-16T08:21:10.565Z,83.8
2018-04-16T08:22:12.001Z,83.4
2018-04-16T08:23:13.361Z,82.6
2018-04-16T08:24:14.758Z,82.4
2018-04-16T08:25:16.174Z,82.2
2018-04-16T08:26:17.573Z,82.7
2018-04-16T08:27:18.966Z,82.2
2018-04-16T08:28:20.363Z,82.8
2018-04-16T08:29:21.759Z,83.4
2018-04-16T08:30:23.160Z,82.6
2018-04-16T08:31:24.560Z,82.8
2018-04-16T08:32:25.967Z,82.7
2018-04-16T08:33:27.360Z,82.1
2018-04-16T08:34:28.761Z,81.8
2018-04-16T08:35:30.157Z,81.4
2018-04-16T08:36:31.557Z,80.9
2018-04-16T08:37:32.956Z,80.7
2018-04-16T08:38:34.357Z,81.7
2018-04-16T08:39:35.752Z,81.0
2018-04-16T08:40:37.148Z,81.5
2018-04-16T08:41:38.549Z,80.0
2018-04-16T08:42:39.946Z,80.4
2018-04-16T08:43:41.349Z,80.5
2018-04-16T08:44:42.748Z,80.4
2018-04-16T08:45:44.150Z,80.4
2018-04-16T08:46:45.548Z,80.8
2018-04-16T08:47:46.938Z,81.0
2018-04-16T08:48:48.343Z,80.7
2018-04-16T08:49:49.750Z,80.4
2018-04-16T08:50:51.206Z,78.7
2018-04-16T08:51:52.605Z,79.1
2018-04-16T08:52:54.008Z,79.1
2018-04-16T08:53:55.403Z,80.3
2018-04-16T08:54:56.805Z,79.6
2018-04-16T08:55:58.238Z,79.0
2018-04-16T08:56:59.634Z,77.0
2018-04-16T08:58:01.035Z,78.6
2018-04-16T08:59:02.438Z,78.0
2018-04-16T09:00:03.852Z,76.5
2018-04-16T09:01:05.251Z,77.4
2018-04-16T09:02:06.647Z,78.0
2018-04-16T09:03:08.046Z,76.3
2018-04-16T09:04:09.446Z,75.8
2018-04-16T09:05:10.846Z,77.1
2018-04-16T09:06:12.244Z,77.1
2018-04-16T09:07:13.642Z,76.7
2018-04-16T09:08:15.041Z,77.7
2018-04-16T09:09:16.440Z,77.5
2018-04-16T09:10:17.838Z,77.4
2018-04-16T09:11:19.280Z,77.6
2018-04-16T09:12:20.666Z,77.5
2018-04-16T09:13:22.063Z,77.5
2018-04-16T09:14:23.464Z,77.8
2018-04-16T09:15:24.866Z,77.6
2018-04-16T09:16:26.257Z,76.6
2018-04-16T09:17:27.655Z,75.0
2018-04-16T09:18:29.053Z,75.7
2018-04-16T09:19:30.454Z,75.7
2018-04-16T09:20:31.851Z,74.7
2018-04-16T09:21:33.250Z,74.8
2018-04-16T09:22:34.649Z,74.5
2018-04-16T09:23:36.055Z,73.1
2018-04-16T09:24:37.453Z,75.2
2018-04-16T09:25:38.851Z,74.7
2018-04-16T09:26:40.250Z,74.1
2018-04-16T09:27:41.649Z,73.2
2018-04-16T09:28:43.050Z,72.1
2018-04-16T09:29:44.452Z,73.7
2018-04-16T09:30:45.852Z,73.3
2018-04-16T09:31:47.240Z,72.1
2018-04-16T09:32:48.641Z,72.5
2018-04-16T09:33:50.045Z,71.2
2018-04-16T09:34:51.447Z,70.0
2018-04-16T09:35:52.851Z,68.7
2018-04-16T09:36:54.248Z,69.0
2018-04-16T09:37:55.781Z,69.9
2018-04-16T09:38:57.181Z,68.0
2018-04-16T09:39:58.581Z,67.6
2018-04-16T09:40:59.983Z,68.4
2018-04-16T09:42:01.387Z,68.5
2018-04-16T09:43:02.788Z,68.0
2018-04-16T09:44:04.183Z,68.9
2018-04-16T09:45:05.580Z,69.4
2018-04-16T09:46:06.980Z,69.1
2018-04-16T09:47:08.384Z,69.5
2018-04-16T09:48:09.787Z,70.6
2018-04-16T09:49:11.190Z,70.1
2018-04-16T09:50:12.591Z,70.8
2018-04-16T09:51:13.990Z,71.3
2018-04-16T09:52:15.420Z,71.4
2018-04-16T09:53:16.828Z,71.4
2018-04-16T09:54:18.240Z,72.6
2018-04-16T09:55:19.630Z,72.4
2018-04-16T09:56:21.030Z,72.5
2018-04-16T09:57:22.432Z,71.6
2018-04-16T09:58:23.832Z,72.6
2018-04-16T09:59:25.224Z,72.3
2018-04-16T10:00:26.619Z,72.4
2018-04-16T10:01:28.018Z,72.3
2018-04-16T10:02:29.418Z,72.1
2018-04-16T10:03:30.816Z,71.1
2018-04-16T10:04:32.218Z,71.9
2018-04-16T10:05:33.618Z,71.3
2018-04-16T10:06:35.015Z,72.2
2018-04-16T10:07:36.412Z,72.6
2018-04-16T10:08:37.810Z,72.8
2018-04-16T10:09:39.214Z,72.9
2018-04-16T10:10:40.613Z,71.9
2018-04-16T10:11:42.019Z,71.7
2018-04-16T10:12:43.420Z,70.6
2018-04-16T10:13:44.818Z,70.5
2018-04-16T10:14:46.220Z,69.8
2018-04-16T10:15:47.622Z,67.1
2018-04-16T10:16:49.023Z,66.4
2018-04-16T10:17:50.423Z,66.9
2018-04-16T10:18:51.824Z,66.4
2018-04-16T10:19:53.227Z,65.0
2018-04-16T10:20:54.623Z,64.9
2018-04-16T10:21:56.023Z,64.6
2018-04-16T10:22:57.432Z,66.2
2018-04-16T10:23:58.832Z,66.7
2018-04-16T10:25:00.456Z,64.8
2018-04-16T10:26:01.878Z,64.0
2018-04-16T10:27:03.353Z,63.6
2018-04-16T10:28:04.793Z,63.5
2018-04-16T10:29:06.205Z,62.1
2018-04-16T10:30:07.616Z,61.5
2018-04-16T10:31:09.022Z,62.3
2018-04-16T10:32:10.434Z,64.2
2018-04-16T10:33:11.838Z,62.5
2018-04-16T10:34:13.285Z,60.0
2018-04-16T10:35:14.707Z,61.0
2018-04-16T10:36:16.101Z,60.5
2018-04-16T10:37:17.501Z,59.1
2018-04-16T10:38:18.905Z,60.7
2018-04-16T10:39:20.314Z,61.1
2018-04-16T10:40:21.719Z,60.1
2018-04-16T10:41:23.118Z,58.1
2018-04-16T10:42:24.521Z,58.5
2018-04-16T10:43:25.924Z,58.7
2018-04-16T10:44:27.331Z,59.1
2018-04-16T10:45:28.732Z,58.8
2018-04-16T10:46:30.132Z,58.7
2018-04-16T10:47:31.542Z,58.9
2018-04-16T10:48:32.938Z,58.9
2018-04-16T10:49:34.341Z,58.7
2018-04-16T10:50:35.743Z,60.2
2018-04-16T10:51:37.145Z,60.5
2018-04-16T10:52:38.547Z,60.3
2018-04-16T10:53:39.952Z,60.4
2018-04-16T10:54:41.353Z,59.5
2018-04-16T10:55:42.755Z,59.2
2018-04-16T10:56:44.155Z,58.9
2018-04-16T10:57:45.554Z,60.4
2018-04-16T10:58:46.961Z,60.9
2018-04-16T10:59:48.368Z,60.3
2018-04-16T11:00:49.778Z,60.7
2018-04-16T11:01:51.175Z,61.9
2018-04-16T11:02:52.572Z,62.4
2018-04-16T11:03:53.976Z,61.7
2018-04-16T11:04:55.381Z,60.7
2018-04-16T11:05:56.786Z,59.8
2018-04-16T11:06:58.191Z,60.9
2018-04-16T11:07:59.593Z,61.6
2018-04-16T11:09:00.993Z,62.6
2018-04-16T11:10:02.398Z,60.7
2018-04-16T11:11:03.904Z,60.3
2018-04-16T11:12:05.322Z,60.0
2018-04-16T11:13:06.727Z,60.3
2018-04-16T11:14:08.134Z,59.5
2018-04-16T11:15:09.533Z,59.1
2018-04-16T11:16:10.935Z,60.1
2018-04-16T11:17:12.335Z,60.3
2018-04-16T11:18:13.736Z,59.3
2018-04-16T11:19:15.142Z,60.3
2018-04-16T11:20:16.544Z,59.3
2018-04-16T11:21:17.943Z,60.4
2018-04-16T11:22:19.351Z,58.3
2018-04-16T11:23:20.755Z,57.2
2018-04-16T11:24:22.157Z,57.0
2018-04-16T11:25:23.560Z,58.1
2018-04-16T11:26:25.007Z,57.8
2018-04-16T11:27:26.369Z,60.1
2018-04-16T11:28:27.773Z,58.6
2018-04-16T11:29:29.174Z,55.8
2018-04-16T11:30:30.577Z,56.5
2018-04-16T11:31:31.980Z,56.3
2018-04-16T11:32:33.384Z,57.0
2018-04-16T11:33:34.789Z,57.4
2018-04-16T11:34:36.192Z,56.5
2018-04-16T11:35:37.592Z,56.9
2018-04-16T11:36:38.995Z,55.8
2018-04-16T11:37:40.403Z,54.5
2018-04-16T11:38:41.805Z,54.5
2018-04-16T11:39:43.207Z,53.9
2018-04-16T11:40:44.619Z,53.9
2018-04-16T11:41:46.018Z,53.9
2018-04-16T11:42:47.413Z,53.4
2018-04-16T11:43:48.816Z,54.5
2018-04-16T11:44:50.223Z,53.3
2018-04-16T11:45:51.628Z,54.3
2018-04-16T11:46:53.030Z,55.2
2018-04-16T11:47:54.428Z,54.3
2018-04-16T11:48:55.840Z,53.1
2018-04-16T11:49:57.244Z,53.3
2018-04-16T11:50:58.650Z,52.6
2018-04-16T11:52:00.055Z,52.1
2018-04-16T11:53:01.454Z,51.0
2018-04-16T11:54:02.855Z,51.1
2018-04-16T11:55:04.258Z,52.3
2018-04-16T11:56:05.662Z,51.0
2018-04-16T11:57:07.099Z,52.3
2018-04-16T11:58:08.501Z,52.4
2018-04-16T11:59:09.908Z,51.1
2018-04-16T12:00:11.303Z,49.7
2018-04-16T12:01:12.708Z,50.1
2018-04-16T12:02:14.116Z,50.8
2018-04-16T12:03:15.511Z,51.1
2018-04-16T12:04:16.948Z,53.3
2018-04-16T12:05:18.333Z,52.4
2018-04-16T12:06:19.740Z,49.9
2018-04-16T12:07:21.146Z,49.9
2018-04-16T12:08:22.546Z,51.3
2018-04-16T12:09:23.992Z,49.6
2018-04-16T12:10:25.454Z,50.1
2018-04-16T12:11:26.804Z,49.5
2018-04-16T12:12:28.209Z,48.5
2018-04-16T12:13:29.619Z,49.2
2018-04-16T12:14:31.026Z,49.3
2018-04-16T12:15:32.430Z,49.1
2018-04-16T12:16:33.871Z,49.0
2018-04-16T12:17:35.237Z,48.8
2018-04-16T12:18:36.639Z,48.8
2018-04-16T12:19:38.049Z,47.9
2018-04-16T12:20:39.455Z,48.6
2018-04-16T12:21:40.862Z,48.7
2018-04-16T12:22:42.258Z,47.9
2018-04-16T12:23:43.660Z,47.8
2018-04-16T12:24:45.065Z,46.8
2018-04-16T12:25:46.468Z,46.0
2018-04-16T12:26:47.875Z,47.3
2018-04-16T12:27:49.295Z,46.7
2018-04-16T12:28:50.678Z,46.1
2018-04-16T12:29:52.082Z,48.3
2018-04-16T12:30:53.487Z,46.8
2018-04-16T12:31:54.892Z,48.3
2018-04-16T12:32:56.300Z,48.0
2018-04-16T12:33:57.708Z,47.1
2018-04-16T12:34:59.118Z,46.7
2018-04-16T12:36:00.519Z,46.7
2018-04-16T12:37:01.944Z,46.1
2018-04-16T12:38:03.352Z,46.0
2018-04-16T12:39:04.805Z,45.9
2018-04-16T12:40:06.180Z,47.2
2018-04-16T12:41:07.584Z,44.6
2018-04-16T12:42:09.037Z,43.7
2018-04-16T12:43:10.440Z,43.8
2018-04-16T12:44:11.932Z,43.4
2018-04-16T12:45:13.353Z,42.9
2018-04-16T12:46:14.756Z,42.4
2018-04-16T12:47:16.162Z,43.5
2018-04-16T12:48:17.569Z,43.0
2018-04-16T12:49:18.990Z,44.3
2018-04-16T12:50:20.393Z,43.3
2018-04-16T12:51:21.802Z,43.8
2018-04-16T12:52:23.206Z,44.6
2018-04-16T12:53:24.609Z,43.9
2018-04-16T12:54:26.014Z,46.2
2018-04-16T12:55:27.418Z,46.9
2018-04-16T12:56:28.824Z,47.5
2018-04-16T12:57:30.226Z,48.3
2018-04-16T12:58:31.633Z,48.7
2018-04-16T12:59:33.035Z,47.8
2018-04-16T13:00:34.437Z,49.3
2018-04-16T13:01:35.858Z,48.4
2018-04-16T13:02:37.253Z,48.9
2018-04-16T13:03:38.655Z,48.3
2018-04-16T13:04:40.058Z,48.6
2018-04-16T13:05:41.464Z,48.7
2018-04-16T13:06:42.875Z,49.2
2018-04-16T13:07:44.279Z,50.0
2018-04-16T13:08:45.677Z,48.7
2018-04-16T13:09:47.080Z,50.3
2018-04-16T13:10:48.486Z,50.5
2018-04-16T13:11:49.893Z,50.5
2018-04-16T13:12:51.288Z,51.2
2018-04-16T13:13:52.694Z,51.2
2018-04-16T13:14:54.094Z,52.3
2018-04-16T13:15:55.492Z,52.8
2018-04-16T13:16:56.893Z,53.6
2018-04-16T13:17:58.301Z,51.3
2018-04-16T13:18:59.702Z,50.2
2018-04-16T13:20:01.103Z,51.0
2018-04-16T13:21:02.510Z,51.3
2018-04-16T13:22:03.906Z,49.4
2018-04-16T13:23:05.313Z,48.9
2018-04-16T13:24:06.713Z,50.1
2018-04-16T13:25:08.114Z,50.7
2018-04-16T13:26:09.515Z,51.2
2018-04-16T13:27:10.915Z,50.3
2018-04-16T13:28:12.316Z,48.7
2018-04-16T13:29:13.717Z,48.8
2018-04-16T13:30:15.117Z,48.8
2018-04-16T13:31:16.598Z,48.3
2018-04-16T13:32:18.008Z,47.4
2018-04-16T13:33:19.408Z,47.8
2018-04-16T13:34:20.808Z,49.1
2018-04-16T13:35:22.206Z,49.1
2018-04-16T13:36:23.617Z,49.0
2018-04-16T13:37:25.013Z,48.3